createdAt,value
2023-01-28T00:00:01.620Z,2.50
2023-01-28T00:04:04.515Z,2.50
2023-01-28T00:08:07.332Z,2.50
2023-01-28T00:12:11.500Z,2.50
2023-01-28T00:16:14.432Z,2.50
2023-01-28T00:20:17.562Z,2.50
2023-01-28T00:24:20.399Z,2.50
2023-01-28T00:28:24.567Z,2.50
2023-01-28T00:32:27.386Z,2.40
2023-01-28T00:36:30.231Z,2.40
2023-01-28T00:40:32.995Z,2.50
2023-01-28T00:44:37.509Z,2.40
2023-01-28T00:48:41.228Z,2.40
2023-01-28T00:52:44.633Z,2.40
2023-01-28T00:56:47.445Z,2.40
2023-01-28T01:00:51.610Z,2.40
2023-01-28T01:05:00.301Z,2.40
2023-01-28T01:09:03.707Z,2.40
2023-01-28T01:13:06.791Z,2.40
2023-01-28T01:17:11.059Z,2.40
2023-01-28T01:21:14.551Z,2.30
2023-01-28T01:25:18.019Z,2.30
2023-01-28T01:29:20.798Z,2.30
2023-01-28T01:33:25.195Z,2.30
2023-01-28T01:37:28.157Z,2.30
2023-01-28T01:41:31.698Z,2.30
2023-01-28T01:45:35.461Z,2.30
2023-01-28T01:49:39.729Z,2.30
2023-01-28T01:53:45.097Z,2.30
2023-01-28T01:57:50.544Z,2.30
2023-01-28T02:01:53.496Z,2.30
2023-01-28T02:05:57.655Z,2.20
2023-01-28T02:10:00.443Z,2.20
2023-01-28T02:14:05.133Z,2.20
2023-01-28T02:18:07.931Z,2.20
2023-01-28T02:22:30.209Z,2.20
2023-01-28T02:26:43.382Z,2.20
2023-01-28T02:30:52.866Z,2.20
2023-01-28T02:34:58.177Z,2.20
2023-01-28T02:39:03.605Z,2.20
2023-01-28T02:43:06.377Z,2.20
2023-01-28T02:47:30.333Z,2.20
2023-01-28T02:51:40.875Z,2.20
2023-01-28T02:55:46.180Z,2.20
2023-01-28T02:59:52.445Z,2.20
2023-01-28T03:03:59.790Z,2.20
2023-01-28T03:08:22.892Z,2.20
2023-01-28T03:12:44.277Z,2.20
2023-01-28T03:17:04.922Z,2.20
2023-01-28T03:21:28.124Z,2.20
2023-01-28T03:25:48.204Z,2.20
2023-01-28T03:30:10.623Z,2.20
2023-01-28T03:34:31.865Z,2.10
2023-01-28T03:38:42.196Z,2.10
2023-01-28T03:42:45.016Z,2.10
2023-01-28T03:46:48.735Z,2.10
2023-01-28T03:50:52.037Z,2.10
2023-01-28T03:54:56.254Z,2.10
2023-01-28T03:58:59.038Z,2.10
2023-01-28T04:03:02.132Z,2.10
2023-01-28T04:07:04.967Z,2.10
2023-01-28T04:11:16.584Z,2.10
2023-01-28T04:15:19.405Z,2.10
2023-01-28T04:19:22.485Z,2.10
2023-01-28T04:23:25.418Z,2.00
2023-01-28T04:27:29.555Z,2.00
2023-01-28T04:31:32.353Z,2.00
2023-01-28T04:35:35.189Z,2.00
2023-01-28T04:39:37.999Z,2.00
2023-01-28T04:43:42.280Z,1.90
2023-01-28T04:47:45.099Z,1.90
2023-01-28T04:51:47.870Z,1.90
2023-01-28T04:55:50.661Z,1.90
2023-01-28T04:59:54.837Z,1.90
2023-01-28T05:03:57.819Z,1.90
2023-01-28T05:08:00.862Z,1.80
2023-01-28T05:12:03.622Z,1.80
2023-01-28T05:16:08.333Z,1.80
2023-01-28T05:20:11.746Z,1.80
2023-01-28T05:24:15.801Z,1.80
2023-01-28T05:28:18.647Z,1.80
2023-01-28T05:32:22.816Z,1.80
2023-01-28T05:36:25.647Z,1.80
2023-01-28T05:40:28.510Z,1.80
2023-01-28T05:44:31.289Z,1.80
2023-01-28T05:48:35.458Z,1.80
2023-01-28T05:52:38.266Z,1.80
2023-01-28T05:56:41.099Z,1.80
2023-01-28T06:00:43.914Z,1.80
2023-01-28T06:04:48.066Z,1.80
2023-01-28T06:08:50.853Z,1.80
2023-01-28T06:12:53.723Z,1.80
2023-01-28T06:16:56.551Z,1.80
2023-01-28T06:21:00.741Z,1.80
2023-01-28T06:25:04.182Z,1.80
2023-01-28T06:29:07.121Z,1.80
2023-01-28T06:33:09.928Z,1.70
2023-01-28T06:37:15.045Z,1.70
2023-01-28T06:41:17.845Z,1.70
2023-01-28T06:45:20.636Z,1.60
2023-01-28T06:49:23.524Z,1.60
2023-01-28T06:53:27.712Z,1.60
2023-01-28T06:57:30.515Z,1.60
2023-01-28T07:01:33.357Z,1.60
2023-01-28T07:05:36.186Z,1.60
2023-01-28T07:09:40.356Z,1.60
2023-01-28T07:13:43.576Z,1.50
2023-01-28T07:17:46.668Z,1.50
2023-01-28T07:21:49.469Z,1.50
2023-01-28T07:25:53.724Z,1.50
2023-01-28T07:29:56.546Z,1.50
2023-01-28T07:33:59.367Z,1.50
2023-01-28T07:38:02.443Z,1.50
2023-01-28T07:42:06.668Z,1.50
2023-01-28T07:46:09.469Z,1.50
2023-01-28T07:50:12.500Z,1.60
2023-01-28T07:54:15.640Z,1.60
2023-01-28T07:58:19.765Z,1.60
2023-01-28T08:02:22.549Z,1.60
2023-01-28T08:06:25.437Z,1.60
2023-01-28T08:10:28.222Z,1.60
2023-01-28T08:14:32.353Z,1.70
2023-01-28T08:18:35.176Z,1.70
2023-01-28T08:22:37.963Z,1.70
2023-01-28T08:26:40.742Z,1.70
2023-01-28T08:30:45.296Z,1.70
2023-01-28T08:34:48.243Z,1.70
2023-01-28T08:38:54.150Z,1.70
2023-01-28T08:42:57.341Z,1.80
2023-01-28T08:47:01.745Z,1.80
2023-01-28T08:51:04.735Z,1.80
2023-01-28T08:55:08.068Z,1.80
2023-01-28T08:59:10.947Z,1.80
2023-01-28T09:03:15.159Z,1.80
2023-01-28T09:07:18.030Z,1.80
2023-01-28T09:11:20.830Z,1.80
2023-01-28T09:15:23.669Z,1.80
2023-01-28T09:19:29.540Z,1.80
2023-01-28T09:23:32.367Z,1.70
2023-01-28T09:27:35.197Z,1.70
2023-01-28T09:31:38.255Z,1.70
2023-01-28T09:35:42.439Z,1.70
2023-01-28T09:39:45.313Z,1.70
2023-01-28T09:43:59.269Z,1.70
2023-01-28T09:48:03.182Z,1.70
2023-01-28T09:52:13.479Z,1.70
2023-01-28T09:56:26.729Z,1.70
2023-01-28T10:00:32.195Z,1.70
2023-01-28T10:04:44.969Z,1.70
2023-01-28T10:09:00.216Z,1.70
2023-01-28T10:13:15.351Z,1.70
2023-01-28T10:17:20.745Z,1.80
2023-01-28T10:21:25.847Z,1.80
2023-01-28T10:25:31.776Z,1.90
2023-01-28T10:29:35.109Z,1.90
2023-01-28T10:33:40.003Z,1.90
2023-01-28T10:37:42.853Z,1.90
2023-01-28T10:41:57.325Z,1.90
2023-01-28T10:46:04.162Z,1.90
2023-01-28T10:50:07.503Z,1.90
2023-01-28T10:54:20.898Z,1.90
2023-01-28T10:58:25.914Z,2.00
2023-01-28T11:02:32.489Z,2.10
2023-01-28T11:06:35.492Z,2.30
2023-01-28T11:10:40.375Z,2.90
2023-01-28T11:14:50.884Z,4.10
2023-01-28T11:18:54.548Z,5.10
2023-01-28T11:22:57.712Z,6.20
2023-01-28T11:27:03.026Z,7.90
2023-01-28T11:31:07.384Z,8.20
2023-01-28T11:35:25.218Z,9.40
2023-01-28T11:47:44.280Z,10.90
2023-01-28T11:55:55.540Z,11.40
2023-01-28T12:00:12.619Z,11.80
2023-01-28T12:04:21.950Z,12.10
2023-01-28T12:08:25.864Z,12.10
2023-01-28T12:12:43.611Z,12.00
2023-01-28T12:16:50.662Z,12.00
2023-01-28T12:21:00.167Z,12.20
2023-01-28T12:25:11.006Z,12.70
2023-01-28T12:29:19.435Z,13.30
2023-01-28T12:33:33.959Z,13.50
2023-01-28T12:37:46.103Z,13.70
2023-01-28T12:41:50.902Z,14.30
2023-01-28T12:45:56.220Z,14.60
2023-01-28T12:50:00.830Z,14.50
2023-01-28T12:54:06.846Z,14.30
2023-01-28T12:58:13.992Z,13.70
2023-01-28T13:02:22.370Z,13.00
2023-01-28T13:06:28.702Z,12.30
2023-01-28T13:10:36.395Z,11.60
2023-01-28T13:14:39.364Z,10.90
2023-01-28T13:18:46.249Z,10.10
2023-01-28T13:22:49.077Z,8.90
2023-01-28T13:26:54.052Z,8.80
2023-01-28T13:31:02.786Z,8.30
2023-01-28T13:35:07.331Z,7.90
2023-01-28T13:39:16.562Z,7.60
2023-01-28T13:43:38.340Z,7.30
2023-01-28T13:47:44.286Z,7.00
2023-01-28T13:51:52.142Z,6.80
2023-01-28T13:55:56.471Z,6.50
2023-01-28T14:04:15.425Z,6.10
2023-01-28T14:08:28.267Z,6.00
2023-01-28T14:12:41.365Z,5.80
2023-01-28T14:16:52.071Z,5.70
2023-01-28T14:20:57.254Z,5.50
2023-01-28T14:25:01.860Z,5.40
2023-01-28T14:41:22.247Z,5.10
2023-01-28T14:45:31.342Z,5.00
2023-01-28T15:05:48.092Z,4.70
2023-01-28T15:10:00.426Z,4.60
2023-01-28T15:14:03.247Z,4.50
2023-01-28T15:18:08.154Z,4.40
2023-01-28T15:22:16.512Z,4.30
2023-01-28T15:26:21.245Z,4.30
2023-01-28T15:30:26.431Z,4.20
2023-01-28T15:34:31.009Z,4.20
2023-01-28T15:38:35.393Z,4.20
2023-01-28T15:42:40.116Z,4.10
2023-01-28T16:07:12.287Z,3.80
2023-01-28T16:11:22.394Z,3.70
2023-01-28T16:15:25.183Z,3.60
2023-01-28T16:19:34.315Z,3.50
2023-01-28T16:23:39.356Z,3.40
2023-01-28T16:27:43.750Z,3.40
2023-01-28T16:31:46.578Z,3.30
2023-01-28T16:36:05.497Z,3.30
2023-01-28T16:40:12.638Z,3.20
2023-01-28T16:44:17.416Z,3.20
2023-01-28T16:48:20.187Z,3.10
2023-01-28T16:52:23.110Z,3.00
2023-01-28T16:56:45.530Z,3.00
2023-01-28T17:00:50.326Z,2.90
2023-01-28T17:04:53.139Z,2.90
2023-01-28T17:08:55.939Z,2.80
2023-01-28T17:12:59.774Z,2.80
2023-01-28T17:17:03.907Z,2.70
2023-01-28T17:21:07.521Z,2.70
2023-01-28T17:25:10.587Z,2.60
2023-01-28T17:29:13.385Z,2.60
2023-01-28T17:33:17.550Z,2.50
2023-01-28T17:37:20.385Z,2.40
2023-01-28T17:41:23.517Z,2.40
2023-01-28T17:45:26.335Z,2.30
2023-01-28T17:49:31.008Z,2.30
2023-01-28T17:53:33.821Z,2.20
2023-01-28T17:57:36.661Z,2.20
2023-01-28T18:01:39.441Z,2.20
2023-01-28T18:05:43.758Z,2.10
2023-01-28T18:09:46.913Z,2.10
2023-01-28T18:13:49.781Z,2.00
2023-01-28T18:17:52.728Z,2.00
2023-01-28T18:21:57.079Z,1.90
2023-01-28T18:26:00.848Z,1.90
2023-01-28T18:30:03.646Z,1.80
2023-01-28T18:34:06.548Z,1.80
2023-01-28T18:38:10.700Z,1.70
2023-01-28T18:42:13.629Z,1.70
2023-01-28T18:46:18.765Z,1.60
2023-01-28T18:50:21.879Z,1.60
2023-01-28T18:54:26.043Z,1.60
2023-01-28T18:58:29.044Z,1.50
2023-01-28T19:06:35.007Z,1.50
2023-01-28T19:10:39.292Z,1.40
2023-01-28T19:14:42.385Z,1.40
2023-01-28T19:18:45.277Z,1.40
2023-01-28T19:22:48.116Z,1.30
2023-01-28T19:26:52.308Z,1.40
2023-01-28T19:30:55.242Z,1.40
2023-01-28T19:34:58.047Z,1.40
2023-01-28T19:39:01.286Z,1.40
2023-01-28T19:43:05.616Z,1.40
2023-01-28T19:47:08.715Z,1.40
2023-01-28T19:51:12.810Z,1.40
2023-01-28T19:55:15.878Z,1.40
2023-01-28T19:59:20.637Z,1.40
2023-01-28T20:03:23.433Z,1.40
2023-01-28T20:07:26.210Z,1.40
2023-01-28T20:11:28.994Z,1.50
2023-01-28T20:15:33.196Z,1.50
2023-01-28T20:19:37.934Z,1.50
2023-01-28T20:23:40.736Z,1.50
2023-01-28T20:27:43.583Z,1.50
2023-01-28T20:32:00.900Z,1.50
2023-01-28T20:36:12.214Z,1.60
2023-01-28T20:40:15.190Z,1.60
2023-01-28T20:44:17.974Z,1.60
2023-01-28T20:48:22.180Z,1.60
2023-01-28T20:52:25.427Z,1.60
2023-01-28T20:56:29.906Z,1.60
2023-01-28T21:00:32.772Z,1.70
2023-01-28T21:04:37.139Z,1.70
2023-01-28T21:08:39.996Z,1.70
2023-01-28T21:12:42.791Z,1.70
2023-01-28T21:16:45.798Z,1.70
2023-01-28T21:20:50.288Z,1.80
2023-01-28T21:24:53.188Z,1.80
2023-01-28T21:28:56.188Z,1.80
2023-01-28T21:32:59.083Z,1.80
2023-01-28T21:37:03.309Z,1.80
2023-01-28T21:41:06.839Z,1.80
2023-01-28T21:45:10.301Z,1.90
2023-01-28T21:49:13.366Z,1.90
2023-01-28T21:53:17.608Z,1.90
2023-01-28T21:57:20.526Z,1.90
2023-01-28T22:01:23.748Z,1.90
2023-01-28T22:05:26.816Z,1.90
2023-01-28T22:09:31.267Z,1.90
2023-01-28T22:13:34.556Z,1.90
2023-01-28T22:17:37.356Z,1.90
2023-01-28T22:21:41.968Z,1.90
2023-01-28T22:25:46.409Z,1.90
2023-01-28T22:29:49.281Z,1.90
2023-01-28T22:33:52.333Z,1.90
2023-01-28T22:37:57.206Z,2.00
2023-01-28T22:42:01.448Z,2.00
2023-01-28T22:46:05.900Z,2.00
2023-01-28T22:50:09.438Z,2.00
2023-01-28T22:54:14.780Z,2.00
2023-01-28T22:58:18.993Z,2.00
2023-01-28T23:02:21.760Z,2.00
2023-01-28T23:06:25.972Z,2.00
2023-01-28T23:10:29.509Z,2.00
2023-01-28T23:14:51.321Z,2.00
2023-01-28T23:19:11.537Z,2.00
2023-01-28T23:23:33.371Z,2.00
2023-01-28T23:27:36.373Z,2.00
2023-01-28T23:31:42.037Z,2.00
2023-01-28T23:35:44.880Z,2.00
2023-01-28T23:39:47.701Z,2.00
2023-01-28T23:43:51.348Z,2.00
2023-01-28T23:47:55.515Z,2.00
2023-01-28T23:51:58.343Z,2.00
2023-01-28T23:56:01.170Z,2.00
